Time;durP1;ratioP1;P1;durP2;ratioP2;P2;SDS_P1;SDS_P2;PMS_P1;PMS_P2;Temp;Humidity;BMP_temperature;BMP_pressure;BME280_temperature;BME280_humidity;BME280_pressure;Samples;Min_cycle;Max_cycle;Signal;HPM_P1;HPM_P2
2022/05/04 00:04:43;;;;;;;13.65;11.02;;;;;;;;;;10517075;28;20037;-66
2022/05/04 00:09:46;;;;;;;14.55;10.60;;;;;;;;;;10511666;28;20058;-67
2022/05/04 00:14:50;;;;;;;15.43;11.80;;;;;;;;;;10508957;28;20061;-67
2022/05/04 00:19:52;;;;;;;15.73;11.35;;;;;;;;;;10482675;28;20036;-66
2022/05/04 00:24:55;;;;;;;16.42;12.27;;;;;;;;;;10516088;28;20558;-66
2022/05/04 00:29:59;;;;;;;16.23;11.55;;;;;;;;;;10516362;28;20110;-66
2022/05/04 00:35:01;;;;;;;21.95;12.40;;;;;;;;;;10516437;28;20084;-67
2022/05/04 00:40:04;;;;;;;17.67;12.90;;;;;;;;;;10509798;28;20063;-66
2022/05/04 00:45:08;;;;;;;15.63;12.32;;;;;;;;;;10478481;28;20044;-67
2022/05/04 00:50:11;;;;;;;18.47;11.83;;;;;;;;;;10473064;28;20045;-66
2022/05/04 00:55:17;;;;;;;15.95;12.43;;;;;;;;;;10474825;28;20344;-66
2022/05/04 01:00:21;;;;;;;21.02;12.38;;;;;;;;;;10492777;28;20044;-66
2022/05/04 01:05:23;;;;;;;18.27;12.93;;;;;;;;;;10513987;28;20040;-66
2022/05/04 01:10:26;;;;;;;19.20;12.98;;;;;;;;;;10513990;28;20047;-66
2022/05/04 01:15:31;;;;;;;20.55;12.57;;;;;;;;;;10472839;28;20073;-66
2022/05/04 01:20:33;;;;;;;16.80;13.32;;;;;;;;;;10480196;28;20135;-66
2022/05/04 01:25:38;;;;;;;18.88;14.15;;;;;;;;;;10492738;28;20049;-66
2022/05/04 01:30:40;;;;;;;18.85;13.65;;;;;;;;;;10473315;28;20048;-66
2022/05/04 01:35:42;;;;;;;19.33;13.90;;;;;;;;;;10496403;28;20052;-66
2022/05/04 01:40:46;;;;;;;19.20;14.30;;;;;;;;;;10482192;28;20126;-67
2022/05/04 01:45:48;;;;;;;22.20;14.32;;;;;;;;;;10475952;28;20056;-66
2022/05/04 01:50:51;;;;;;;24.83;15.35;;;;;;;;;;10473728;28;20041;-67
2022/05/04 01:55:54;;;;;;;18.80;13.98;;;;;;;;;;10474424;28;20049;-67
2022/05/04 02:00:58;;;;;;;24.73;15.13;;;;;;;;;;10473637;28;20344;-67
2022/05/04 02:06:00;;;;;;;21.23;14.85;;;;;;;;;;10485557;28;20036;-67
2022/05/04 02:11:04;;;;;;;24.77;14.77;;;;;;;;;;10490547;28;20205;-67
2022/05/04 02:16:07;;;;;;;22.38;16.05;;;;;;;;;;10521392;28;20044;-66
2022/05/04 02:21:09;;;;;;;24.10;15.38;;;;;;;;;;10480677;28;20048;-66
2022/05/04 02:26:13;;;;;;;21.60;15.32;;;;;;;;;;10479566;28;20056;-67
2022/05/04 02:31:15;;;;;;;24.52;15.52;;;;;;;;;;10490757;28;20044;-66
2022/05/04 02:41:39;;;;;;;21.35;14.30;;;;;;;;;;10508504;28;20232;-67
2022/05/04 02:46:41;;;;;;;23.02;13.88;;;;;;;;;;10508512;28;20053;-67
2022/05/04 02:51:43;;;;;;;21.95;14.65;;;;;;;;;;10478610;28;20048;-67
2022/05/04 02:56:48;;;;;;;21.00;13.50;;;;;;;;;;10511363;28;20052;-67
2022/05/04 03:07:09;;;;;;;19.20;12.77;;;;;;;;;;10491795;28;20048;-67
2022/05/04 03:12:13;;;;;;;17.65;12.75;;;;;;;;;;10477787;28;20060;-66
2022/05/04 03:17:17;;;;;;;21.98;13.50;;;;;;;;;;10475906;28;20094;-66
2022/05/04 03:22:19;;;;;;;19.45;12.25;;;;;;;;;;10502184;28;20049;-66
2022/05/04 03:27:23;;;;;;;20.05;13.07;;;;;;;;;;10490006;28;20044;-68
2022/05/04 03:32:25;;;;;;;24.45;13.35;;;;;;;;;;10476398;28;20048;-67
2022/05/04 03:37:27;;;;;;;19.25;12.23;;;;;;;;;;10481126;28;20049;-66
2022/05/04 03:42:31;;;;;;;20.88;11.40;;;;;;;;;;10495241;28;20319;-67
2022/05/04 03:47:33;;;;;;;14.93;11.70;;;;;;;;;;10510649;28;20033;-67
2022/05/04 03:52:36;;;;;;;16.63;10.45;;;;;;;;;;10512867;28;20362;-67
2022/05/04 03:57:40;;;;;;;13.98;10.18;;;;;;;;;;10503736;28;20037;-67
2022/05/04 04:02:42;;;;;;;19.23;10.15;;;;;;;;;;10501849;28;20055;-71
2022/05/04 04:07:44;;;;;;;15.02;11.32;;;;;;;;;;10475662;28;20348;-66
2022/05/04 04:12:48;;;;;;;17.70;11.05;;;;;;;;;;10507229;28;20090;-67
2022/05/04 04:17:51;;;;;;;11.63;10.38;;;;;;;;;;10516584;28;20040;-67
2022/05/04 04:22:53;;;;;;;15.20;9.52;;;;;;;;;;10516329;28;20044;-67
2022/05/04 04:27:57;;;;;;;11.98;8.70;;;;;;;;;;10516375;28;20036;-67
2022/05/04 04:33:00;;;;;;;12.27;8.00;;;;;;;;;;10490301;28;20300;-68
2022/05/04 04:38:03;;;;;;;10.73;7.60;;;;;;;;;;10488249;28;20040;-67
2022/05/04 04:43:07;;;;;;;12.15;7.47;;;;;;;;;;10516044;28;20071;-68
2022/05/04 04:48:10;;;;;;;12.02;6.88;;;;;;;;;;10501697;28;20041;-67
2022/05/04 04:53:12;;;;;;;10.70;6.03;;;;;;;;;;10487542;28;20235;-67
2022/05/04 04:58:16;;;;;;;7.85;5.68;;;;;;;;;;10515034;28;20098;-67
2022/05/04 05:03:19;;;;;;;9.07;5.47;;;;;;;;;;10514150;28;20040;-68
2022/05/04 05:08:21;;;;;;;9.13;4.95;;;;;;;;;;10514950;28;20051;-68
2022/05/04 05:13:25;;;;;;;8.05;5.03;;;;;;;;;;10503782;28;20290;-67
2022/05/04 05:18:28;;;;;;;7.00;4.65;;;;;;;;;;10498991;28;20114;-67
2022/05/04 05:23:30;;;;;;;5.78;4.10;;;;;;;;;;10507081;28;20047;-67
2022/05/04 05:28:34;;;;;;;5.80;3.80;;;;;;;;;;10485605;28;20143;-67
2022/05/04 05:33:36;;;;;;;7.82;3.80;;;;;;;;;;10514181;28;20052;-67
2022/05/04 05:38:38;;;;;;;7.38;4.00;;;;;;;;;;10483082;28;20049;-67
2022/05/04 05:43:42;;;;;;;4.72;3.80;;;;;;;;;;10471693;28;20519;-67
2022/05/04 05:48:47;;;;;;;8.93;4.00;;;;;;;;;;10510961;28;20056;-67
2022/05/04 05:53:49;;;;;;;4.10;3.70;;;;;;;;;;10514557;28;20040;-67
2022/05/04 05:58:53;;;;;;;3.75;3.38;;;;;;;;;;10501875;28;20344;-67
2022/05/04 06:03:55;;;;;;;7.25;5.00;;;;;;;;;;10482694;28;20051;-67
2022/05/04 06:08:58;;;;;;;4.05;3.72;;;;;;;;;;10473156;28;20037;-68
2022/05/04 06:14:02;;;;;;;4.63;4.18;;;;;;;;;;10489234;28;20073;-68
2022/05/04 06:19:04;;;;;;;7.53;3.60;;;;;;;;;;10501978;28;20049;-68
2022/05/04 06:24:08;;;;;;;4.13;3.30;;;;;;;;;;10479768;28;20056;-68
2022/05/04 06:29:11;;;;;;;5.75;3.17;;;;;;;;;;10480267;28;20045;-66
2022/05/04 06:34:14;;;;;;;5.60;3.25;;;;;;;;;;10491887;28;20051;-67
2022/05/04 06:39:16;;;;;;;3.47;3.00;;;;;;;;;;10477460;28;20106;-69
2022/05/04 06:44:20;;;;;;;4.60;2.80;;;;;;;;;;10472316;28;20252;-70
2022/05/04 06:49:22;;;;;;;5.55;2.80;;;;;;;;;;10473332;28;20040;-68
2022/05/04 06:54:24;;;;;;;2.72;2.53;;;;;;;;;;10479093;28;20063;-68
2022/05/04 06:59:28;;;;;;;3.13;2.83;;;;;;;;;;10478528;28;20248;-67
2022/05/04 07:04:31;;;;;;;5.28;3.15;;;;;;;;;;10478295;28;20239;-67
2022/05/04 07:09:34;;;;;;;8.35;2.70;;;;;;;;;;10494162;28;20041;-68
2022/05/04 07:14:38;;;;;;;2.63;2.40;;;;;;;;;;10510756;28;20061;-67
2022/05/04 07:19:41;;;;;;;4.30;2.08;;;;;;;;;;10502133;28;20049;-68
2022/05/04 07:24:43;;;;;;;3.15;2.03;;;;;;;;;;10494143;28;20244;-67
2022/05/04 07:29:49;;;;;;;1.92;1.70;;;;;;;;;;10506497;28;20044;-67
2022/05/04 07:34:51;;;;;;;4.28;2.10;;;;;;;;;;10499069;28;20045;-68
2022/05/04 07:45:15;;;;;;;3.65;2.22;;;;;;;;;;10495387;28;20052;-68
2022/05/04 07:50:18;;;;;;;2.83;2.10;;;;;;;;;;10497974;28;20057;-69
2022/05/04 07:55:22;;;;;;;3.70;2.00;;;;;;;;;;10477564;28;20067;-67
2022/05/04 08:05:46;;;;;;;2.47;2.28;;;;;;;;;;10476384;28;20486;-67
2022/05/04 08:10:49;;;;;;;2.17;1.98;;;;;;;;;;10476125;28;20078;-69
2022/05/04 08:15:53;;;;;;;2.77;2.57;;;;;;;;;;10525671;28;20063;-67
2022/05/04 08:20:55;;;;;;;4.75;2.80;;;;;;;;;;10490192;28;20294;-67
2022/05/04 08:25:58;;;;;;;3.90;3.60;;;;;;;;;;10475970;28;20057;-67
2022/05/04 08:31:01;;;;;;;4.50;4.20;;;;;;;;;;10480083;28;20186;-68
2022/05/04 08:36:05;;;;;;;3.67;3.38;;;;;;;;;;10475898;28;20267;-68
2022/05/04 08:41:08;;;;;;;4.55;2.78;;;;;;;;;;10474753;28;20048;-69
2022/05/04 08:46:14;;;;;;;3.17;2.60;;;;;;;;;;10474628;28;20358;-69
2022/05/04 08:51:19;;;;;;;8.90;3.53;;;;;;;;;;10475082;28;20057;-69
2022/05/04 08:56:23;;;;;;;2.97;2.40;;;;;;;;;;10491528;28;20041;-68
2022/05/04 09:01:27;;;;;;;7.82;2.88;;;;;;;;;;10492542;28;20045;-68
2022/05/04 09:06:31;;;;;;;4.70;3.53;;;;;;;;;;10474068;28;20045;-68
2022/05/04 09:11:37;;;;;;;4.70;3.47;;;;;;;;;;10473727;28;20065;-68
2022/05/04 09:16:42;;;;;;;3.88;2.65;;;;;;;;;;10487598;28;20051;-67
2022/05/04 09:21:46;;;;;;;6.53;2.60;;;;;;;;;;10473727;28;20359;-68
2022/05/04 09:26:48;;;;;;;4.55;2.00;;;;;;;;;;10473776;28;20068;-69
2022/05/04 09:31:53;;;;;;;5.85;2.33;;;;;;;;;;10497828;28;20267;-68
2022/05/04 09:47:45;;;;;;;5.25;2.85;;;;;;;;;;10499282;28;20052;-67
2022/05/04 09:52:48;;;;;;;4.47;2.60;;;;;;;;;;10486569;28;20082;-68
2022/05/04 09:57:52;;;;;;;5.03;2.80;;;;;;;;;;10512590;28;20040;-69
2022/05/04 10:02:57;;;;;;;5.18;3.42;;;;;;;;;;10504464;28;20288;-68
2022/05/04 10:07:59;;;;;;;5.18;3.72;;;;;;;;;;10474520;28;20083;-66
2022/05/04 10:13:03;;;;;;;8.63;3.00;;;;;;;;;;10472287;28;20344;-68
2022/05/04 10:18:14;;;;;;;4.80;3.42;;;;;;;;;;10490754;28;20052;-68
2022/05/04 10:23:20;;;;;;;5.13;3.10;;;;;;;;;;10492167;28;20037;-69
2022/05/04 10:28:24;;;;;;;10.35;3.60;;;;;;;;;;10517526;28;20044;-68
2022/05/04 10:33:35;;;;;;;6.78;3.40;;;;;;;;;;10493038;28;20044;-67
2022/05/04 10:38:38;;;;;;;4.50;2.83;;;;;;;;;;10495955;28;20069;-68
2022/05/04 10:43:45;;;;;;;4.07;3.10;;;;;;;;;;10480470;28;20040;-67
2022/05/04 10:48:52;;;;;;;5.53;2.72;;;;;;;;;;10480708;28;20363;-68
2022/05/04 10:54:00;;;;;;;5.07;3.05;;;;;;;;;;10531478;28;20106;-68
2022/05/04 10:59:03;;;;;;;5.50;2.72;;;;;;;;;;10522113;28;20052;-69
2022/05/04 11:04:22;;;;;;;6.10;3.37;;;;;;;;;;10520811;28;20055;-68
2022/05/04 11:09:29;;;;;;;9.50;2.97;;;;;;;;;;10534901;28;20373;-67
2022/05/04 11:14:34;;;;;;;3.88;2.83;;;;;;;;;;10485424;28;20053;-67
2022/05/04 11:19:43;;;;;;;8.32;3.03;;;;;;;;;;10510330;28;20108;-67
2022/05/04 11:24:46;;;;;;;3.95;2.97;;;;;;;;;;10534054;28;20044;-67
2022/05/04 11:29:48;;;;;;;5.63;3.05;;;;;;;;;;10518957;28;20262;-68
2022/05/04 11:34:52;;;;;;;8.93;3.45;;;;;;;;;;10509985;28;20044;-66
2022/05/04 11:39:54;;;;;;;6.35;3.00;;;;;;;;;;10482779;28;20313;-68
2022/05/04 11:44:57;;;;;;;4.93;3.20;;;;;;;;;;10477764;28;20099;-67
2022/05/04 11:50:00;;;;;;;4.22;3.08;;;;;;;;;;10515232;28;20040;-67
2022/05/04 11:55:03;;;;;;;4.32;3.28;;;;;;;;;;10518904;28;20049;-67
2022/05/04 12:00:14;;;;;;;5.00;2.93;;;;;;;;;;10505529;28;20320;-68
2022/05/04 12:05:18;;;;;;;9.50;3.08;;;;;;;;;;10531439;28;20200;-67
2022/05/04 12:10:21;;;;;;;6.43;2.63;;;;;;;;;;10493041;28;20283;-69
2022/05/04 12:15:25;;;;;;;4.43;2.78;;;;;;;;;;10476830;28;20064;-68
2022/05/04 12:20:28;;;;;;;5.83;3.73;;;;;;;;;;10492597;28;20041;-68
2022/05/04 12:25:31;;;;;;;;;;;;;;;;;;10475939;28;20099;-67
2022/05/04 12:36:04;;;;;;;4.82;2.72;;;;;;;;;;10476089;28;20239;-67
2022/05/04 12:41:08;;;;;;;3.10;2.80;;;;;;;;;;10488252;28;20060;-67
2022/05/04 12:46:12;;;;;;;3.65;2.58;;;;;;;;;;10480247;28;20041;-67
2022/05/04 12:51:18;;;;;;;5.50;3.03;;;;;;;;;;10478831;28;20080;-68
2022/05/04 13:01:41;;;;;;;2.80;2.60;;;;;;;;;;10489962;28;20053;-68
2022/05/04 13:06:45;;;;;;;4.10;2.85;;;;;;;;;;10485322;28;20090;-68
2022/05/04 13:11:48;;;;;;;6.32;3.05;;;;;;;;;;10507360;28;20348;-68
2022/05/04 13:16:54;;;;;;;2.90;2.70;;;;;;;;;;10473622;28;20053;-71
2022/05/04 13:21:59;;;;;;;8.70;2.97;;;;;;;;;;10494385;28;20273;-71
2022/05/04 13:27:02;;;;;;;;;;;;;;;;;;10491108;28;20045;-71
2022/05/04 13:32:05;;;;;;;6.63;2.80;;;;;;;;;;10473357;28;19920;-71
2022/05/04 13:37:09;;;;;;;3.22;2.83;;;;;;;;;;10480093;28;20130;-71
2022/05/04 13:42:12;;;;;;;6.00;3.07;;;;;;;;;;10505666;28;20058;-71
2022/05/04 13:47:15;;;;;;;3.22;2.92;;;;;;;;;;10500071;28;20524;-71
2022/05/04 13:57:39;;;;;;;2.80;2.60;;;;;;;;;;10503923;28;20322;-69
2022/05/04 14:02:41;;;;;;;5.30;3.10;;;;;;;;;;10481452;28;20343;-70
2022/05/04 14:07:45;;;;;;;8.07;3.92;;;;;;;;;;10481864;28;20041;-71
2022/05/04 14:12:49;;;;;;;5.25;3.10;;;;;;;;;;10481134;28;20364;-71
2022/05/04 14:17:52;;;;;;;4.35;2.60;;;;;;;;;;10482069;28;20052;-70
2022/05/04 14:22:56;;;;;;;5.20;2.90;;;;;;;;;;10481058;28;20092;-70
2022/05/04 14:27:59;;;;;;;5.73;2.90;;;;;;;;;;10481473;28;20041;-70
2022/05/04 14:33:02;;;;;;;4.85;2.92;;;;;;;;;;10488160;28;20036;-70
2022/05/04 14:38:08;;;;;;;5.47;3.10;;;;;;;;;;10505795;28;20240;-70
2022/05/04 14:43:10;;;;;;;6.82;4.32;;;;;;;;;;10512932;28;20319;-70
2022/05/04 14:48:12;;;;;;;4.93;2.90;;;;;;;;;;10504291;28;20048;-70
2022/05/04 14:53:16;;;;;;;5.45;2.88;;;;;;;;;;10480238;28;20049;-71
2022/05/04 14:58:19;;;;;;;3.20;2.85;;;;;;;;;;10479594;28;20064;-70
2022/05/04 15:08:43;;;;;;;17.23;6.25;;;;;;;;;;10492454;28;20083;-70
2022/05/04 15:13:46;;;;;;;4.30;3.23;;;;;;;;;;10518252;28;20064;-69
2022/05/04 15:18:48;;;;;;;15.20;3.40;;;;;;;;;;10479012;28;20044;-70
2022/05/04 15:23:52;;;;;;;6.43;3.03;;;;;;;;;;10479099;28;20067;-68
2022/05/04 15:28:54;;;;;;;7.13;2.80;;;;;;;;;;10499332;28;20052;-71
2022/05/04 15:33:57;;;;;;;7.38;2.85;;;;;;;;;;10491178;28;20332;-70
2022/05/04 15:39:01;;;;;;;7.50;2.97;;;;;;;;;;10481563;28;20107;-70
2022/05/04 15:44:04;;;;;;;7.10;3.13;;;;;;;;;;10489404;28;20041;-71
2022/05/04 15:49:07;;;;;;;9.38;3.13;;;;;;;;;;10517867;28;20048;-69
2022/05/04 15:54:11;;;;;;;5.77;2.80;;;;;;;;;;10509782;28;20055;-68
2022/05/04 15:59:14;;;;;;;9.25;3.42;;;;;;;;;;10506562;28;20052;-68
2022/05/04 16:04:16;;;;;;;7.57;3.38;;;;;;;;;;10500721;28;20037;-67
2022/05/04 16:09:20;;;;;;;8.10;3.90;;;;;;;;;;10509419;28;20044;-68
2022/05/04 16:14:22;;;;;;;8.70;4.10;;;;;;;;;;10504676;28;20406;-68
2022/05/04 16:24:45;;;;;;;8.10;3.55;;;;;;;;;;10495834;28;20048;-67
2022/05/04 16:29:48;;;;;;;5.53;3.47;;;;;;;;;;10477337;28;20221;-67
2022/05/04 16:34:50;;;;;;;6.15;3.72;;;;;;;;;;10512151;28;20040;-69
2022/05/04 16:39:54;;;;;;;6.07;3.50;;;;;;;;;;10514993;28;20097;-67
2022/05/04 16:44:56;;;;;;;8.07;3.65;;;;;;;;;;10502112;28;20048;-69
2022/05/04 16:49:58;;;;;;;4.30;3.90;;;;;;;;;;10499124;28;20055;-67
2022/05/04 16:55:02;;;;;;;6.68;4.63;;;;;;;;;;10516759;28;20116;-67
2022/05/04 17:00:07;;;;;;;7.68;4.40;;;;;;;;;;10496598;28;20037;-69
2022/05/04 17:05:09;;;;;;;12.43;4.97;;;;;;;;;;10510212;28;20085;-68
2022/05/04 17:10:13;;;;;;;6.25;3.53;;;;;;;;;;10477567;28;20052;-72
2022/05/04 17:15:16;;;;;;;15.30;4.60;;;;;;;;;;10478094;28;20268;-70
2022/05/04 17:20:19;;;;;;;15.90;5.57;;;;;;;;;;10473799;28;20522;-70
2022/05/04 17:25:23;;;;;;;10.15;4.72;;;;;;;;;;10476847;28;20045;-68
2022/05/04 17:30:25;;;;;;;5.95;4.45;;;;;;;;;;10492020;28;20356;-68
2022/05/04 17:40:48;;;;;;;10.13;4.70;;;;;;;;;;10505064;28;20079;-68
2022/05/04 17:45:51;;;;;;;7.85;4.10;;;;;;;;;;10515246;28;20057;-68
2022/05/04 17:50:53;;;;;;;8.45;4.20;;;;;;;;;;10477492;28;20048;-68
2022/05/04 17:55:57;;;;;;;6.72;4.22;;;;;;;;;;10474055;28;20060;-68
2022/05/04 18:01:00;;;;;;;24.92;13.63;;;;;;;;;;10474043;28;20049;-68
2022/05/04 18:06:04;;;;;;;13.88;6.95;;;;;;;;;;10472847;28;20037;-69
2022/05/04 18:11:10;;;;;;;12.27;6.65;;;;;;;;;;10479100;28;20102;-69
2022/05/04 18:16:12;;;;;;;12.00;5.88;;;;;;;;;;10506521;28;20281;-68
2022/05/04 18:21:15;;;;;;;15.25;5.70;;;;;;;;;;10483599;28;20262;-70
2022/05/04 18:26:19;;;;;;;21.63;8.15;;;;;;;;;;10478977;28;20244;-69
2022/05/04 18:31:21;;;;;;;16.27;9.20;;;;;;;;;;10514830;28;20052;-69
2022/05/04 18:36:30;;;;;;;22.75;8.38;;;;;;;;;;10498154;28;20328;-68
2022/05/04 18:41:34;;;;;;;20.20;7.47;;;;;;;;;;10486456;28;20037;-69
2022/05/04 18:46:36;;;;;;;18.50;6.80;;;;;;;;;;10479556;28;20273;-67
2022/05/04 18:51:39;;;;;;;21.10;10.35;;;;;;;;;;10480151;28;20082;-69
2022/05/04 18:56:43;;;;;;;34.55;11.20;;;;;;;;;;10493252;28;20084;-68
2022/05/04 19:01:46;;;;;;;20.70;11.15;;;;;;;;;;10518622;28;20037;-68
2022/05/04 19:06:48;;;;;;;64.78;31.05;;;;;;;;;;10520060;28;20052;-68
2022/05/04 19:11:52;;;;;;;178.82;71.70;;;;;;;;;;10520853;28;20064;-67
2022/05/04 19:16:55;;;;;;;129.23;42.45;;;;;;;;;;10509325;28;20344;-67
2022/05/04 19:21:57;;;;;;;74.20;28.50;;;;;;;;;;10521352;28;20040;-69
2022/05/04 19:27:01;;;;;;;63.08;25.25;;;;;;;;;;10521089;28;20209;-68
2022/05/04 19:32:04;;;;;;;32.63;12.83;;;;;;;;;;10518329;28;20335;-68
2022/05/04 19:37:07;;;;;;;20.08;10.55;;;;;;;;;;10507738;28;20325;-68
2022/05/04 19:42:11;;;;;;;14.15;8.85;;;;;;;;;;10503300;28;20052;-68
2022/05/04 19:47:13;;;;;;;21.63;9.15;;;;;;;;;;10519954;28;20075;-67
2022/05/04 19:52:15;;;;;;;21.55;11.00;;;;;;;;;;10507636;28;20328;-68
2022/05/04 19:57:19;;;;;;;16.15;10.43;;;;;;;;;;10503478;28;20052;-68
2022/05/04 20:02:22;;;;;;;22.57;10.83;;;;;;;;;;10499755;28;20049;-69
2022/05/04 20:07:24;;;;;;;22.17;12.02;;;;;;;;;;10492138;28;20040;-68
2022/05/04 20:12:28;;;;;;;22.65;10.80;;;;;;;;;;10504439;28;20093;-67
2022/05/04 20:17:30;;;;;;;28.95;13.02;;;;;;;;;;10525155;28;20056;-67
2022/05/04 20:22:36;;;;;;;18.80;11.43;;;;;;;;;;10538884;28;20064;-68
2022/05/04 20:27:39;;;;;;;21.60;10.43;;;;;;;;;;10475126;28;20071;-67
2022/05/04 20:32:42;;;;;;;17.60;10.25;;;;;;;;;;10475179;28;20087;-67
2022/05/04 20:43:05;;;;;;;17.10;10.20;;;;;;;;;;10511682;28;20041;-66
2022/05/04 20:48:08;;;;;;;17.58;10.15;;;;;;;;;;10492511;28;20060;-67
2022/05/04 20:53:10;;;;;;;18.45;10.15;;;;;;;;;;10498150;28;20056;-68
2022/05/04 20:58:15;;;;;;;16.60;12.35;;;;;;;;;;10511136;28;20044;-66
2022/05/04 21:03:17;;;;;;;26.02;13.40;;;;;;;;;;10495284;28;20041;-68
2022/05/04 21:08:19;;;;;;;22.20;14.45;;;;;;;;;;10501655;28;20071;-68
2022/05/04 21:13:23;;;;;;;23.98;15.50;;;;;;;;;;10473524;28;20057;-66
2022/05/04 21:18:26;;;;;;;20.30;14.27;;;;;;;;;;10494401;28;20106;-67
2022/05/04 21:23:29;;;;;;;18.10;13.75;;;;;;;;;;10475901;28;20332;-67
2022/05/04 21:28:32;;;;;;;22.38;13.43;;;;;;;;;;10492055;28;20098;-67
2022/05/04 21:33:35;;;;;;;20.92;13.23;;;;;;;;;;10506826;28;20048;-68
2022/05/04 21:38:38;;;;;;;17.27;11.07;;;;;;;;;;10485078;28;20045;-66
2022/05/04 21:43:44;;;;;;;14.65;10.77;;;;;;;;;;10500239;28;20049;-68
2022/05/04 21:48:46;;;;;;;17.27;10.50;;;;;;;;;;10526044;28;20052;-67
2022/05/04 21:53:48;;;;;;;16.92;11.23;;;;;;;;;;10513780;28;20299;-67
2022/05/04 21:58:53;;;;;;;17.02;11.32;;;;;;;;;;10486631;28;20107;-66
2022/05/04 22:03:55;;;;;;;25.13;11.82;;;;;;;;;;10515803;28;20320;-67
2022/05/04 22:08:58;;;;;;;20.45;11.32;;;;;;;;;;10483156;28;20193;-66
2022/05/04 22:14:02;;;;;;;15.95;10.00;;;;;;;;;;10502491;28;20049;-68
2022/05/04 22:19:05;;;;;;;17.23;10.65;;;;;;;;;;10515384;28;20067;-67
2022/05/04 22:24:07;;;;;;;14.88;9.85;;;;;;;;;;10519662;28;20052;-67
2022/05/04 22:29:11;;;;;;;19.30;9.98;;;;;;;;;;10502846;28;20106;-67
2022/05/04 22:34:13;;;;;;;16.02;9.60;;;;;;;;;;10492967;28;20048;-65
2022/05/04 22:39:16;;;;;;;20.25;9.52;;;;;;;;;;10515600;28;20044;-67
2022/05/04 22:44:19;;;;;;;16.77;9.00;;;;;;;;;;10486644;28;20325;-68
2022/05/04 22:49:22;;;;;;;18.60;9.10;;;;;;;;;;10480356;28;20056;-67
2022/05/04 22:54:24;;;;;;;13.55;7.82;;;;;;;;;;10479742;28;20053;-65
2022/05/04 22:59:28;;;;;;;16.02;7.78;;;;;;;;;;10494269;28;20078;-67
2022/05/04 23:04:30;;;;;;;13.80;7.83;;;;;;;;;;10499630;28;20391;-66
2022/05/04 23:09:33;;;;;;;11.75;7.30;;;;;;;;;;10484306;28;20243;-66
2022/05/04 23:14:37;;;;;;;16.33;7.75;;;;;;;;;;10498194;28;20169;-66
2022/05/04 23:19:40;;;;;;;9.35;6.88;;;;;;;;;;10498021;28;20229;-67
2022/05/04 23:24:42;;;;;;;16.17;6.80;;;;;;;;;;10493188;28;20047;-67
2022/05/04 23:29:46;;;;;;;17.55;6.72;;;;;;;;;;10502727;28;20294;-67
2022/05/04 23:34:48;;;;;;;11.20;6.60;;;;;;;;;;10512082;28;20056;-66
2022/05/04 23:39:52;;;;;;;11.05;5.80;;;;;;;;;;10512252;28;20089;-67
2022/05/04 23:44:55;;;;;;;14.07;6.63;;;;;;;;;;10518191;28;20048;-67
2022/05/04 23:49:58;;;;;;;12.20;6.25;;;;;;;;;;10504521;28;20099;-67
2022/05/04 23:55:02;;;;;;;8.88;6.03;;;;;;;;;;10489994;28;20048;-67
